Time;durP1;ratioP1;P1;durP2;ratioP2;P2;SDS_P1;SDS_P2;PMS_P1;PMS_P2;Temp;Humidity;BMP_temperature;BMP_pressure;BME280_temperature;BME280_humidity;BME280_pressure;Samples;Min_cycle;Max_cycle;Signal;HPM_P1;HPM_P2
2022/09/24 00:00:56;;;;;;;10.43;9.30;;;14.40;46.30;;;;;;5033802;28;20244;-43
2022/09/24 00:03:24;;;;;;;13.45;9.40;;;14.40;46.30;;;;;;5033918;28;20178;-43
2022/09/24 00:05:51;;;;;;;9.50;8.70;;;14.40;46.30;;;;;;5033007;28;20202;-43
2022/09/24 00:08:18;;;;;;;11.15;9.50;;;14.40;46.40;;;;;;5033522;28;20181;-44
2022/09/24 00:10:47;;;;;;;8.40;7.35;;;14.40;46.60;;;;;;5033514;28;20257;-42
2022/09/24 00:13:16;;;;;;;9.15;7.85;;;14.40;46.50;;;;;;5033768;28;20300;-44
2022/09/24 00:15:45;;;;;;;11.45;8.70;;;14.40;46.50;;;;;;5032634;28;20221;-42
2022/09/24 00:18:13;;;;;;;9.18;8.27;;;14.40;46.70;;;;;;5033420;28;20170;-42
2022/09/24 00:20:39;;;;;;;9.20;8.25;;;14.40;46.70;;;;;;5033327;28;20514;-42
2022/09/24 00:23:06;;;;;;;14.68;8.85;;;14.40;46.90;;;;;;5033540;28;20288;-44
2022/09/24 00:28:16;;;;;;;9.85;8.45;;;14.40;47.00;;;;;;5033308;28;20173;-42
2022/09/24 00:30:43;;;;;;;9.18;8.27;;;14.30;46.90;;;;;;5033135;28;20181;-42
2022/09/24 00:33:10;;;;;;;10.02;9.02;;;14.30;47.00;;;;;;5033048;28;20178;-43
2022/09/24 00:35:38;;;;;;;8.10;6.50;;;14.40;46.90;;;;;;5032300;28;20202;-44
2022/09/24 00:38:05;;;;;;;9.18;7.80;;;14.30;46.90;;;;;;5033142;28;20184;-44
2022/09/24 00:40:36;;;;;;;11.32;7.88;;;14.40;46.90;;;;;;5032925;28;20170;-43
2022/09/24 00:43:19;;;;;;;9.45;8.45;;;14.40;46.90;;;;;;5032939;28;20173;-42
2022/09/24 00:45:46;;;;;;;8.73;7.30;;;14.30;46.80;;;;;;5032157;28;20202;-43
2022/09/24 00:48:12;;;;;;;7.20;6.50;;;14.30;47.00;;;;;;5032841;28;20185;-44
2022/09/24 00:50:37;;;;;;;10.97;8.27;;;14.30;47.00;;;;;;5032762;28;20182;-42
2022/09/24 00:53:09;;;;;;;9.80;7.07;;;14.30;46.90;;;;;;5032874;28;20181;-43
2022/09/24 00:55:38;;;;;;;8.18;6.75;;;14.30;46.90;;;;;;5032038;28;20213;-43
2022/09/24 00:58:07;;;;;;;8.60;7.00;;;14.30;46.90;;;;;;5032662;28;20707;-42
2022/09/24 01:00:35;;;;;;;7.32;6.65;;;14.30;46.90;;;;;;5032518;28;20178;-43
2022/09/24 01:03:08;;;;;;;8.07;7.32;;;14.20;46.60;;;;;;5032691;28;20239;-44
2022/09/24 01:05:37;;;;;;;8.27;7.05;;;14.20;46.70;;;;;;5032009;28;20247;-43
2022/09/24 01:08:05;;;;;;;8.25;7.45;;;14.20;46.70;;;;;;5032167;28;20184;-43
2022/09/24 01:10:49;;;;;;;8.07;7.13;;;14.20;46.60;;;;;;5032012;28;20166;-42
2022/09/24 01:13:43;;;;;;;9.02;7.45;;;14.10;46.70;;;;;;5032524;28;20180;-43
2022/09/24 01:16:35;;;;;;;7.15;6.43;;;14.10;46.60;;;;;;5031653;28;20214;-43
2022/09/24 01:19:04;;;;;;;9.82;6.50;;;14.00;46.50;;;;;;5032244;28;20173;-43
2022/09/24 01:21:33;;;;;;;7.43;6.72;;;13.90;46.60;;;;;;5032485;28;20185;-42
2022/09/24 01:24:36;;;;;;;7.18;6.47;;;13.90;46.70;;;;;;5032243;28;20713;-43
2022/09/24 01:27:16;;;;;;;9.90;7.30;;;13.90;46.80;;;;;;5031868;28;20202;-42
2022/09/24 01:29:49;;;;;;;13.57;7.75;;;13.90;46.80;;;;;;5032389;28;20247;-43
2022/09/24 01:32:27;;;;;;;7.57;6.78;;;13.90;46.80;;;;;;5030940;28;20174;-42
2022/09/24 01:35:20;;;;;;;10.65;7.78;;;13.90;46.80;;;;;;5032092;28;20212;-44
2022/09/24 01:37:53;;;;;;;8.25;7.00;;;13.90;46.80;;;;;;5031532;28;20233;-43
2022/09/24 01:40:21;;;;;;;6.28;5.65;;;13.80;46.80;;;;;;5032135;28;20146;-42
2022/09/24 01:42:49;;;;;;;8.98;6.65;;;13.80;46.80;;;;;;5032206;28;20333;-42
2022/09/24 01:45:16;;;;;;;9.48;8.63;;;13.80;46.80;;;;;;5032191;28;20252;-44
2022/09/24 01:47:42;;;;;;;6.20;5.60;;;13.80;46.90;;;;;;5031514;28;20184;-42
2022/09/24 01:50:11;;;;;;;14.17;7.57;;;13.80;46.90;;;;;;5031988;28;20253;-42
2022/09/24 01:53:18;;;;;;;10.52;6.95;;;13.70;47.10;;;;;;5031884;28;20413;-43
2022/09/24 01:55:48;;;;;;;7.60;6.80;;;13.70;46.90;;;;;;4989426;28;20266;-44
2022/09/24 01:58:21;;;;;;;10.13;6.82;;;13.70;47.10;;;;;;5026535;28;20193;-42
2022/09/24 02:00:52;;;;;;;9.05;7.40;;;13.70;47.20;;;;;;5031886;28;20697;-44
2022/09/24 02:03:25;;;;;;;6.40;5.80;;;13.70;47.10;;;;;;5032135;28;20177;-44
2022/09/24 02:06:24;;;;;;;7.85;7.15;;;13.70;47.20;;;;;;5031491;28;20198;-42
2022/09/24 02:08:49;;;;;;;10.70;8.82;;;13.70;47.20;;;;;;5022728;28;20190;-42
2022/09/24 02:11:22;;;;;;;7.80;6.67;;;13.60;47.20;;;;;;5031790;28;20185;-42
2022/09/24 02:14:08;;;;;;;7.03;6.32;;;13.70;47.30;;;;;;5031801;28;20166;-42
2022/09/24 02:16:44;;;;;;;6.60;5.80;;;13.70;47.30;;;;;;5031061;28;20609;-44
2022/09/24 02:19:12;;;;;;;7.63;6.63;;;13.70;47.30;;;;;;5031752;28;20166;-43
2022/09/24 02:21:40;;;;;;;6.68;6.00;;;13.60;47.30;;;;;;5034967;28;20169;-43
2022/09/24 02:24:19;;;;;;;7.43;6.60;;;13.60;47.20;;;;;;5035634;28;20197;-42
2022/09/24 02:26:45;;;;;;;7.80;6.75;;;13.60;47.10;;;;;;5035317;28;20190;-42
2022/09/24 02:29:12;;;;;;;7.75;6.95;;;13.60;47.10;;;;;;5035756;28;20183;-42
2022/09/24 02:31:41;;;;;;;7.20;6.10;;;13.60;47.10;;;;;;5035525;28;20666;-42
2022/09/24 02:34:19;;;;;;;9.82;6.85;;;13.60;47.20;;;;;;5035375;28;20530;-43
2022/09/24 02:36:59;;;;;;;8.60;7.70;;;13.60;47.10;;;;;;5034652;28;20193;-42
2022/09/24 02:39:25;;;;;;;10.57;5.95;;;13.60;47.40;;;;;;5035385;28;20170;-43
2022/09/24 02:41:52;;;;;;;6.18;5.57;;;13.60;47.00;;;;;;5035275;28;20569;-42
2022/09/24 02:44:19;;;;;;;7.75;6.25;;;13.50;46.80;;;;;;5035402;28;20525;-42
2022/09/24 02:46:45;;;;;;;8.40;6.13;;;13.50;46.80;;;;;;5034594;28;20604;-43
2022/09/24 02:49:13;;;;;;;11.25;6.32;;;13.40;46.70;;;;;;5035292;28;20204;-43
2022/09/24 02:51:40;;;;;;;7.95;7.15;;;13.40;46.70;;;;;;5039354;28;20186;-43
2022/09/24 02:54:06;;;;;;;7.20;6.47;;;13.30;46.70;;;;;;5043342;28;20182;-43
2022/09/24 02:56:32;;;;;;;7.53;6.70;;;13.30;46.90;;;;;;5043791;28;20276;-43
2022/09/24 02:59:00;;;;;;;6.90;6.20;;;13.30;46.70;;;;;;5044742;28;20200;-43
2022/09/24 03:01:25;;;;;;;7.18;5.40;;;13.20;46.70;;;;;;5043465;28;20453;-43
2022/09/24 03:03:51;;;;;;;8.97;6.57;;;13.30;46.90;;;;;;5044173;28;20198;-44
2022/09/24 03:06:17;;;;;;;8.20;6.20;;;13.30;46.90;;;;;;5038788;28;20244;-44
2022/09/24 03:08:43;;;;;;;7.47;6.70;;;13.20;46.90;;;;;;5035145;28;20916;-43
2022/09/24 03:11:10;;;;;;;7.00;6.30;;;13.20;46.90;;;;;;5034959;28;20987;-43
2022/09/24 03:13:39;;;;;;;8.15;6.85;;;13.20;47.00;;;;;;5034727;28;20178;-43
2022/09/24 03:16:06;;;;;;;8.48;7.65;;;13.20;47.00;;;;;;5033929;28;20298;-42
2022/09/24 03:18:33;;;;;;;9.07;7.47;;;13.20;47.20;;;;;;5034666;28;20170;-42
2022/09/24 03:21:05;;;;;;;12.55;9.13;;;13.20;47.20;;;;;;5034685;28;20174;-42
2022/09/24 03:23:31;;;;;;;16.17;9.80;;;13.20;47.10;;;;;;5034587;28;20181;-42
2022/09/24 03:25:56;;;;;;;12.90;8.93;;;13.20;47.10;;;;;;5033927;28;20254;-43
2022/09/24 03:28:22;;;;;;;13.80;11.73;;;13.10;47.20;;;;;;5034759;28;20178;-43
2022/09/24 03:31:01;;;;;;;14.32;10.73;;;13.10;47.20;;;;;;5034309;28;20174;-43
2022/09/24 03:33:38;;;;;;;15.05;11.55;;;13.10;47.10;;;;;;5033640;28;20174;-42
2022/09/24 03:36:08;;;;;;;17.85;12.57;;;13.10;47.80;;;;;;5033473;28;20197;-42
2022/09/24 03:38:36;;;;;;;16.75;11.55;;;13.10;47.10;;;;;;5034154;28;20163;-42
2022/09/24 03:41:03;;;;;;;15.63;11.57;;;13.10;47.20;;;;;;5034136;28;20174;-43
2022/09/24 03:43:30;;;;;;;15.43;10.48;;;13.10;47.00;;;;;;5034407;28;20174;-42
2022/09/24 03:45:56;;;;;;;13.90;10.68;;;13.10;47.00;;;;;;5033538;28;20274;-42
2022/09/24 03:48:23;;;;;;;15.68;10.93;;;13.10;46.90;;;;;;5033986;28;20637;-43
2022/09/24 03:50:49;;;;;;;13.05;9.70;;;13.10;46.90;;;;;;5034010;28;20170;-43
2022/09/24 03:53:16;;;;;;;14.90;10.23;;;13.10;46.80;;;;;;5033887;28;20185;-42
2022/09/24 03:55:47;;;;;;;10.80;9.70;;;13.00;47.50;;;;;;5033233;28;20225;-42
2022/09/24 03:58:14;;;;;;;14.43;11.20;;;13.00;46.80;;;;;;5033977;28;20166;-42
2022/09/24 04:00:41;;;;;;;21.05;14.13;;;13.00;46.90;;;;;;5033738;28;20602;-43
2022/09/24 04:03:07;;;;;;;17.63;13.45;;;13.00;46.80;;;;;;5034056;28;20178;-43
2022/09/24 04:05:34;;;;;;;16.75;12.45;;;13.00;46.80;;;;;;5033334;28;20198;-43
2022/09/24 04:08:01;;;;;;;15.65;12.05;;;13.00;46.90;;;;;;5033904;28;20202;-42
2022/09/24 04:10:27;;;;;;;16.15;11.90;;;12.90;46.80;;;;;;5033849;28;20186;-42
2022/09/24 04:12:54;;;;;;;17.50;14.52;;;12.90;46.70;;;;;;5033577;28;20181;-43
2022/09/24 04:15:20;;;;;;;17.10;14.80;;;12.90;46.80;;;;;;5033264;28;20292;-42
2022/09/24 04:18:04;;;;;;;18.30;12.93;;;12.90;46.80;;;;;;5032996;28;20519;-42
2022/09/24 04:20:30;;;;;;;17.08;10.63;;;12.80;46.50;;;;;;5033591;28;20209;-42
2022/09/24 04:22:57;;;;;;;15.53;11.97;;;12.70;46.50;;;;;;5033396;28;20180;-42
2022/09/24 04:25:25;;;;;;;13.10;11.20;;;12.70;46.50;;;;;;5033205;28;20428;-43
2022/09/24 04:27:56;;;;;;;17.02;11.35;;;12.60;46.50;;;;;;5033102;28;20197;-43
2022/09/24 04:30:23;;;;;;;12.95;10.48;;;12.60;46.30;;;;;;5033488;28;20173;-42
2022/09/24 04:32:50;;;;;;;15.48;9.85;;;12.60;46.40;;;;;;5033672;28;20251;-43
2022/09/24 04:35:18;;;;;;;11.98;9.43;;;12.60;46.40;;;;;;5033019;28;20198;-42
2022/09/24 04:37:44;;;;;;;11.68;9.27;;;12.60;46.40;;;;;;5032801;28;20210;-43
2022/09/24 04:40:11;;;;;;;10.15;9.15;;;12.50;46.60;;;;;;5033187;28;20166;-43
2022/09/24 04:42:38;;;;;;;12.93;9.38;;;12.50;46.60;;;;;;5033135;28;20181;-43
2022/09/24 04:45:06;;;;;;;13.23;8.40;;;12.50;47.20;;;;;;5032032;28;20249;-43
2022/09/24 04:47:33;;;;;;;12.40;8.25;;;12.50;46.60;;;;;;5030898;28;20185;-42
2022/09/24 04:50:01;;;;;;;9.00;7.88;;;12.50;46.60;;;;;;5032833;28;20173;-42
2022/09/24 04:52:32;;;;;;;8.77;6.70;;;12.50;46.60;;;;;;5033038;28;20232;-42
2022/09/24 04:54:58;;;;;;;10.43;8.40;;;12.50;46.60;;;;;;5032860;28;20182;-43
2022/09/24 04:57:25;;;;;;;10.07;8.13;;;12.50;46.70;;;;;;5032339;28;20206;-43
2022/09/24 04:59:51;;;;;;;7.97;7.13;;;12.50;46.70;;;;;;5032651;28;20173;-42
2022/09/24 05:02:17;;;;;;;10.13;7.93;;;12.50;46.80;;;;;;5032798;28;20180;-42
2022/09/24 05:04:43;;;;;;;10.07;8.63;;;12.40;46.70;;;;;;5032765;28;20270;-42
2022/09/24 05:07:10;;;;;;;22.27;13.55;;;12.40;46.80;;;;;;5032145;28;20229;-42
2022/09/24 05:09:36;;;;;;;11.65;9.68;;;12.50;46.90;;;;;;5032575;28;20166;-42
2022/09/24 05:12:03;;;;;;;15.82;10.27;;;12.50;46.90;;;;;;5032423;28;20646;-42
2022/09/24 05:14:29;;;;;;;19.40;13.15;;;12.50;46.80;;;;;;5032343;28;20194;-42
2022/09/24 05:16:55;;;;;;;20.60;14.52;;;12.50;46.80;;;;;;5031613;28;20209;-42
2022/09/24 05:19:21;;;;;;;21.30;13.20;;;12.50;46.80;;;;;;5032519;28;20174;-42
2022/09/24 05:21:47;;;;;;;13.27;10.60;;;12.50;46.90;;;;;;5032470;28;20225;-42
2022/09/24 05:24:13;;;;;;;15.10;8.40;;;12.50;47.00;;;;;;5032335;28;20634;-43
2022/09/24 05:29:23;;;;;;;13.57;11.30;;;12.40;47.30;;;;;;5032655;28;20403;-42
2022/09/24 05:31:49;;;;;;;11.90;9.40;;;12.50;47.50;;;;;;5032403;28;20572;-42
2022/09/24 05:34:15;;;;;;;14.77;11.50;;;12.50;47.50;;;;;;5032347;28;20777;-43
2022/09/24 05:36:44;;;;;;;12.60;10.17;;;12.50;47.50;;;;;;5031438;28;20432;-42
2022/09/24 05:39:12;;;;;;;9.65;8.20;;;12.60;47.70;;;;;;5032231;28;20405;-42
2022/09/24 05:41:38;;;;;;;11.35;9.70;;;12.70;48.40;;;;;;5032111;28;20703;-42
2022/09/24 05:44:04;;;;;;;12.35;9.70;;;12.70;47.90;;;;;;5032357;28;20205;-42
2022/09/24 05:46:31;;;;;;;11.43;8.85;;;12.70;48.00;;;;;;5031401;28;20201;-42
2022/09/24 05:48:58;;;;;;;13.15;10.20;;;12.80;48.00;;;;;;5030808;28;20174;-42
2022/09/24 05:51:24;;;;;;;11.77;9.63;;;12.90;48.10;;;;;;5032101;28;20174;-42
2022/09/24 05:53:49;;;;;;;11.43;8.90;;;12.90;48.00;;;;;;5032001;28;20184;-42
2022/09/24 05:56:16;;;;;;;14.57;9.47;;;12.90;48.00;;;;;;5034137;28;20946;-42
2022/09/24 05:58:42;;;;;;;9.82;7.70;;;13.00;48.00;;;;;;5036064;28;20565;-43
2022/09/24 06:01:07;;;;;;;10.00;9.00;;;13.00;48.00;;;;;;5036080;28;20177;-43
2022/09/24 06:03:33;;;;;;;11.50;7.50;;;13.00;48.10;;;;;;5036316;28;20220;-43
2022/09/24 06:06:00;;;;;;;11.63;8.70;;;13.10;48.20;;;;;;5035399;28;20240;-43
2022/09/24 06:08:28;;;;;;;10.60;9.20;;;13.10;48.30;;;;;;5035658;28;20411;-42
2022/09/24 06:11:05;;;;;;;11.43;8.10;;;13.20;48.30;;;;;;5035790;28;20182;-42
2022/09/24 06:13:33;;;;;;;8.75;7.85;;;13.30;48.20;;;;;;5035915;28;20162;-42
2022/09/24 06:16:07;;;;;;;14.93;7.80;;;13.20;48.20;;;;;;5035099;28;20288;-43
2022/09/24 06:18:38;;;;;;;8.98;8.05;;;13.30;48.30;;;;;;5036051;28;20163;-42
2022/09/24 06:21:10;;;;;;;10.18;8.02;;;13.30;48.40;;;;;;5035728;28;20496;-43
2022/09/24 06:23:37;;;;;;;9.00;6.55;;;13.40;48.40;;;;;;5035646;28;20541;-42
2022/09/24 06:26:08;;;;;;;8.05;6.82;;;13.40;48.50;;;;;;5035187;28;20209;-43
2022/09/24 06:28:35;;;;;;;8.07;7.05;;;13.40;48.70;;;;;;5035557;28;20162;-43
2022/09/24 06:31:01;;;;;;;8.27;6.97;;;13.50;48.70;;;;;;5035701;28;20186;-42
2022/09/24 06:33:29;;;;;;;7.93;7.15;;;13.60;48.70;;;;;;5035445;28;20177;-43
2022/09/24 06:35:58;;;;;;;9.10;6.75;;;13.60;48.60;;;;;;5034886;28;20217;-43
2022/09/24 06:38:23;;;;;;;9.18;7.35;;;13.70;48.70;;;;;;5035829;28;20178;-43
2022/09/24 06:40:49;;;;;;;10.67;9.20;;;13.80;48.90;;;;;;5037021;28;20192;-42
2022/09/24 06:43:16;;;;;;;24.87;16.20;;;13.80;48.80;;;;;;5043875;28;20170;-41
2022/09/24 06:45:43;;;;;;;17.65;14.27;;;13.80;48.90;;;;;;5044529;28;20198;-43
2022/09/24 06:48:11;;;;;;;20.88;13.77;;;13.90;48.80;;;;;;5045544;28;20246;-43
2022/09/24 06:50:40;;;;;;;15.30;12.88;;;14.00;48.70;;;;;;5044726;28;20170;-42
2022/09/24 06:53:08;;;;;;;12.02;10.73;;;14.10;48.80;;;;;;5044644;28;20189;-42
2022/09/24 06:55:34;;;;;;;10.15;8.88;;;14.30;48.70;;;;;;5043248;28;20206;-43
2022/09/24 06:58:05;;;;;;;10.73;7.70;;;14.40;48.70;;;;;;5036192;28;20227;-43
2022/09/24 07:00:31;;;;;;;27.98;10.52;;;14.40;48.40;;;;;;5035165;28;20211;-42
2022/09/24 07:02:57;;;;;;;8.40;7.50;;;14.50;47.70;;;;;;5034819;28;20598;-42
2022/09/24 07:05:22;;;;;;;10.40;7.27;;;14.50;47.70;;;;;;5034905;28;20787;-43
2022/09/24 07:07:48;;;;;;;8.20;7.40;;;14.60;47.60;;;;;;5033220;28;20185;-43
2022/09/24 07:10:16;;;;;;;9.10;7.40;;;14.70;47.60;;;;;;5034872;28;20174;-42
2022/09/24 07:12:42;;;;;;;12.32;8.60;;;14.80;46.70;;;;;;5034733;28;20311;-42
2022/09/24 07:15:08;;;;;;;13.20;8.83;;;14.90;46.70;;;;;;5034524;28;20308;-43
2022/09/24 07:17:34;;;;;;;9.00;7.40;;;15.00;46.50;;;;;;5034013;28;20407;-42
2022/09/24 07:20:00;;;;;;;10.87;7.07;;;15.20;46.80;;;;;;5034658;28;20174;-42
2022/09/24 07:22:26;;;;;;;8.02;6.82;;;15.30;45.80;;;;;;5034576;28;20284;-42
2022/09/24 07:24:52;;;;;;;7.20;5.77;;;15.50;45.70;;;;;;5034533;28;20205;-43
2022/09/24 07:27:20;;;;;;;10.43;7.17;;;15.50;44.10;;;;;;5033931;28;20405;-44
2022/09/24 07:29:46;;;;;;;8.77;7.85;;;15.60;44.50;;;;;;5034641;28;20188;-43
2022/09/24 07:32:14;;;;;;;8.27;6.13;;;15.80;45.10;;;;;;5034624;28;20180;-43
2022/09/24 07:34:40;;;;;;;8.68;6.10;;;15.90;43.60;;;;;;5034409;28;20657;-43
2022/09/24 07:37:05;;;;;;;9.38;6.72;;;15.90;44.40;;;;;;5033989;28;20198;-43
2022/09/24 07:39:32;;;;;;;9.10;7.20;;;16.10;45.00;;;;;;5034390;28;20195;-43
2022/09/24 07:42:00;;;;;;;7.45;6.47;;;16.30;44.70;;;;;;5034308;28;20205;-43
2022/09/24 07:44:28;;;;;;;10.38;6.50;;;16.40;44.70;;;;;;5034111;28;20189;-43
2022/09/24 07:46:54;;;;;;;8.88;6.20;;;16.70;45.90;;;;;;5033736;28;20251;-43
2022/09/24 07:49:20;;;;;;;7.00;6.30;;;16.90;44.50;;;;;;5034463;28;20225;-43
2022/09/24 07:51:46;;;;;;;7.78;7.00;;;17.10;42.90;;;;;;5034086;28;20534;-43
2022/09/24 07:54:12;;;;;;;8.27;6.70;;;17.10;42.80;;;;;;5033932;28;20170;-43
2022/09/24 07:56:38;;;;;;;6.67;5.97;;;17.20;42.80;;;;;;5033289;28;20193;-43
2022/09/24 07:59:05;;;;;;;6.07;5.47;;;17.30;40.30;;;;;;5033760;28;20170;-43
2022/09/24 08:01:31;;;;;;;6.50;5.85;;;17.30;40.70;;;;;;5034189;28;20423;-42
2022/09/24 08:03:58;;;;;;;6.68;5.97;;;17.30;39.80;;;;;;5034132;28;20176;-42
2022/09/24 08:06:24;;;;;;;9.05;5.85;;;17.50;41.50;;;;;;5033386;28;20198;-44
2022/09/24 08:08:51;;;;;;;6.68;5.90;;;17.60;41.70;;;;;;5033817;28;20189;-43
2022/09/24 08:11:18;;;;;;;6.07;5.47;;;17.80;42.10;;;;;;5033784;28;20589;-43
2022/09/24 08:13:44;;;;;;;8.55;6.30;;;17.80;40.40;;;;;;5033504;28;20265;-43
2022/09/24 08:16:11;;;;;;;9.10;6.57;;;18.00;41.10;;;;;;5032879;28;20244;-43
2022/09/24 08:18:36;;;;;;;9.45;5.10;;;18.00;39.80;;;;;;5033204;28;20740;-43
2022/09/24 08:21:04;;;;;;;8.13;6.73;;;18.00;39.10;;;;;;5033429;28;20264;-43
2022/09/24 08:23:32;;;;;;;7.35;6.53;;;18.10;40.40;;;;;;5034051;28;20265;-43
2022/09/24 08:25:57;;;;;;;8.40;6.57;;;18.10;38.50;;;;;;5032241;28;20197;-43
2022/09/24 08:28:23;;;;;;;7.70;6.90;;;18.20;39.50;;;;;;5053788;23;20312;-43
2022/09/24 08:30:49;;;;;;;6.50;5.70;;;18.30;39.90;;;;;;5027222;28;20166;-43
2022/09/24 08:33:15;;;;;;;7.05;6.00;;;18.50;39.90;;;;;;5033233;28;20174;-43
2022/09/24 08:35:41;;;;;;;6.85;5.68;;;18.50;37.90;;;;;;5032414;28;20672;-43
2022/09/24 08:38:08;;;;;;;10.33;5.83;;;18.50;38.50;;;;;;5033000;28;20197;-43
2022/09/24 08:41:00;;;;;;;8.55;6.07;;;18.50;37.50;;;;;;5033195;28;20220;-43
2022/09/24 08:43:48;;;;;;;6.07;5.47;;;18.30;38.30;;;;;;5028177;28;20186;-43
2022/09/24 08:49:46;;;;;;;17.15;8.43;;;18.50;38.80;;;;;;5031811;28;20240;-42
2022/09/24 08:52:31;;;;;;;8.20;6.40;;;18.70;39.60;;;;;;5032806;28;20257;-43
2022/09/24 08:55:03;;;;;;;7.10;6.40;;;18.80;39.40;;;;;;5032721;28;20716;-43
2022/09/24 08:57:37;;;;;;;7.82;7.13;;;19.10;39.70;;;;;;5032131;28;20672;-43
2022/09/24 09:00:05;;;;;;;10.48;6.40;;;19.20;39.40;;;;;;5032721;28;20576;-44
2022/09/24 09:02:42;;;;;;;5.80;5.25;;;19.40;39.00;;;;;;5032714;28;20233;-44
2022/09/24 09:05:17;;;;;;;5.85;4.47;;;19.50;37.30;;;;;;5032745;28;20173;-43
2022/09/24 09:08:05;;;;;;;6.05;5.30;;;19.50;36.70;;;;;;5031917;28;20262;-43
2022/09/24 09:10:36;;;;;;;6.22;5.63;;;19.50;36.30;;;;;;5032318;28;20263;-43
2022/09/24 09:13:20;;;;;;;5.93;5.32;;;19.60;38.10;;;;;;5032351;28;20655;-42
2022/09/24 09:16:00;;;;;;;5.80;4.75;;;19.80;38.20;;;;;;5031762;28;20590;-43
2022/09/24 09:18:41;;;;;;;8.00;5.60;;;20.00;38.50;;;;;;5032348;28;20699;-43
2022/09/24 09:21:17;;;;;;;6.53;5.15;;;20.10;35.90;;;;;;5032334;28;20227;-43
2022/09/24 09:23:49;;;;;;;10.88;9.25;;;20.20;37.50;;;;;;5032704;28;20584;-43
2022/09/24 09:26:19;;;;;;;7.63;6.85;;;20.40;38.10;;;;;;5031624;28;20170;-43
2022/09/24 09:28:46;;;;;;;5.38;4.50;;;20.50;37.70;;;;;;5032031;28;20241;-43
2022/09/24 09:31:28;;;;;;;5.93;4.00;;;20.60;36.90;;;;;;5031670;28;20213;-43
2022/09/24 09:34:00;;;;;;;6.13;4.43;;;20.70;37.50;;;;;;5032154;28;20174;-43
2022/09/24 09:36:45;;;;;;;6.82;4.95;;;20.90;37.90;;;;;;5031482;28;20259;-44
2022/09/24 09:39:36;;;;;;;4.88;4.10;;;20.90;37.80;;;;;;5032355;28;20225;-43
2022/09/24 09:42:08;;;;;;;5.45;4.95;;;20.90;37.60;;;;;;5032353;28;20239;-42
2022/09/24 09:44:40;;;;;;;6.47;5.45;;;21.00;37.30;;;;;;5032035;28;20476;-43
2022/09/24 09:47:28;;;;;;;7.80;5.20;;;21.00;37.70;;;;;;5031404;28;20537;-42
2022/09/24 09:50:00;;;;;;;5.95;5.30;;;21.00;37.60;;;;;;5032130;28;20213;-43
2022/09/24 09:52:28;;;;;;;6.90;6.05;;;21.00;38.00;;;;;;5031995;28;20642;-43
2022/09/24 09:54:54;;;;;;;5.75;4.75;;;21.00;38.00;;;;;;5031785;28;20277;-44
2022/09/24 09:57:24;;;;;;;5.60;5.10;;;21.10;37.70;;;;;;5031505;28;20637;-43
2022/09/24 09:59:53;;;;;;;6.30;5.70;;;21.20;38.00;;;;;;5032218;28;20413;-42
2022/09/24 10:02:34;;;;;;;5.10;4.60;;;21.30;37.70;;;;;;5032112;28;20181;-42
2022/09/24 10:05:05;;;;;;;5.20;4.30;;;21.40;37.50;;;;;;5032035;28;20174;-43
2022/09/24 10:07:31;;;;;;;8.07;4.70;;;21.40;37.80;;;;;;5031188;28;20318;-43
2022/09/24 10:10:16;;;;;;;6.18;5.15;;;21.50;37.90;;;;;;5031796;28;20177;-43
2022/09/24 10:12:42;;;;;;;5.28;4.78;;;21.60;38.10;;;;;;5031813;28;20526;-43
2022/09/24 10:15:14;;;;;;;5.93;5.20;;;21.80;38.30;;;;;;5031772;28;20194;-43
2022/09/24 10:17:41;;;;;;;5.30;4.70;;;21.90;33.30;;;;;;5031054;28;20201;-44
2022/09/24 10:20:30;;;;;;;5.40;4.68;;;21.90;36.30;;;;;;5031938;28;20185;-43
2022/09/24 10:23:12;;;;;;;5.45;4.82;;;22.20;36.80;;;;;;5031802;28;20178;-42
2022/09/24 10:25:37;;;;;;;4.40;4.00;;;22.30;34.00;;;;;;5030952;28;20178;-42
2022/09/24 10:31:03;;;;;;;5.70;5.00;;;22.50;36.40;;;;;;5032023;28;20197;-44
2022/09/24 10:33:39;;;;;;;4.45;4.05;;;22.70;36.70;;;;;;5031759;28;20295;-43
2022/09/24 10:36:15;;;;;;;6.50;4.30;;;22.80;36.70;;;;;;5030970;28;20251;-44
2022/09/24 10:38:42;;;;;;;6.03;4.95;;;22.90;35.70;;;;;;5031402;28;20596;-43
2022/09/24 10:41:24;;;;;;;5.80;4.18;;;23.00;36.30;;;;;;5032707;28;20181;-43
2022/09/24 10:43:55;;;;;;;5.90;4.70;;;23.10;35.70;;;;;;5035739;28;20167;-43
2022/09/24 10:46:39;;;;;;;5.47;4.03;;;23.20;35.70;;;;;;5035073;28;20389;-44
2022/09/24 10:49:28;;;;;;;4.30;3.90;;;23.20;35.40;;;;;;5035054;28;20424;-44
2022/09/24 10:52:23;;;;;;;5.87;4.63;;;23.20;33.90;;;;;;5035177;28;20443;-43
2022/09/24 10:55:15;;;;;;;3.90;3.40;;;23.30;35.40;;;;;;5034856;28;20501;-43
2022/09/24 10:57:43;;;;;;;4.80;4.40;;;23.40;33.80;;;;;;5034344;28;20456;-42
2022/09/24 11:00:23;;;;;;;4.50;4.10;;;23.50;33.30;;;;;;5034995;28;20459;-44
2022/09/24 11:03:04;;;;;;;5.03;3.30;;;23.60;32.20;;;;;;5035041;28;20793;-43
2022/09/24 11:05:49;;;;;;;5.13;4.10;;;23.70;31.90;;;;;;5034734;28;20397;-44
2022/09/24 11:08:25;;;;;;;4.27;3.70;;;23.70;31.90;;;;;;5034690;28;20431;-43
2022/09/24 11:11:02;;;;;;;4.10;3.70;;;23.80;32.50;;;;;;5033398;28;20395;-43
2022/09/24 11:13:54;;;;;;;4.40;3.50;;;23.80;32.00;;;;;;5034599;28;20926;-44
2022/09/24 11:16:27;;;;;;;3.90;3.50;;;24.00;31.90;;;;;;5032749;28;20468;-43
2022/09/24 11:18:53;;;;;;;4.83;3.00;;;24.00;30.80;;;;;;5034685;28;20428;-43
2022/09/24 11:21:48;;;;;;;3.37;3.03;;;24.10;32.40;;;;;;5034659;28;20742;-43
2022/09/24 11:24:16;;;;;;;4.57;4.00;;;24.30;32.50;;;;;;5034762;28;20161;-43
2022/09/24 11:27:10;;;;;;;4.20;3.33;;;24.40;32.80;;;;;;5034158;28;20408;-43
2022/09/24 11:30:08;;;;;;;5.40;3.97;;;24.50;32.50;;;;;;5034686;28;20588;-44
2022/09/24 11:33:02;;;;;;;3.53;3.23;;;24.50;31.60;;;;;;5031327;28;21078;-42
2022/09/24 11:35:46;;;;;;;4.40;4.00;;;24.60;31.50;;;;;;5034079;28;20948;-43
2022/09/24 11:38:21;;;;;;;3.80;3.50;;;24.60;29.60;;;;;;5034270;28;20428;-43
2022/09/24 11:41:20;;;;;;;3.17;2.87;;;24.60;30.30;;;;;;5034294;28;20434;-44
2022/09/24 11:44:17;;;;;;;5.77;3.50;;;24.70;30.30;;;;;;5034361;28;20405;-43
2022/09/24 11:46:56;;;;;;;4.53;4.13;;;24.70;29.80;;;;;;5024830;28;20413;-43
2022/09/24 11:49:41;;;;;;;3.63;3.30;;;24.70;30.40;;;;;;5034185;28;20435;-43
2022/09/24 11:52:17;;;;;;;4.03;3.40;;;24.80;30.90;;;;;;5034111;28;20931;-44
2022/09/24 11:55:20;;;;;;;3.67;3.23;;;24.90;31.40;;;;;;5033491;28;20452;-44
2022/09/24 11:58:12;;;;;;;4.10;3.70;;;25.00;31.10;;;;;;5033544;28;20448;-43
2022/09/24 12:00:58;;;;;;;4.80;3.50;;;25.00;30.00;;;;;;5033700;28;20893;-42
2022/09/24 12:03:53;;;;;;;3.60;3.30;;;25.10;29.60;;;;;;5033759;28;20764;-43
2022/09/24 12:06:24;;;;;;;5.73;4.57;;;25.10;29.90;;;;;;5033077;28;20407;-43
2022/09/24 12:08:57;;;;;;;5.43;4.07;;;25.10;29.50;;;;;;5033631;28;20497;-43
2022/09/24 12:11:35;;;;;;;5.00;4.50;;;25.20;29.60;;;;;;5033726;28;20385;-44
2022/09/24 12:14:24;;;;;;;5.90;3.30;;;25.30;29.80;;;;;;5033820;28;20413;-43
2022/09/24 12:17:00;;;;;;;5.30;4.80;;;25.40;30.40;;;;;;5033246;28;20386;-43
2022/09/24 12:19:49;;;;;;;4.10;3.70;;;25.30;28.50;;;;;;5033449;28;20416;-43
2022/09/24 12:22:18;;;;;;;4.73;4.33;;;25.40;29.50;;;;;;5033324;28;20400;-44
2022/09/24 12:24:57;;;;;;;3.50;3.20;;;25.40;27.40;;;;;;5033180;28;20516;-43
2022/09/24 12:27:36;;;;;;;5.97;4.70;;;25.40;27.70;;;;;;5032701;28;20443;-43
2022/09/24 12:33:54;;;;;;;5.20;4.20;;;25.50;28.50;;;;;;5002196;28;20454;-44
2022/09/24 12:36:55;;;;;;;5.10;4.30;;;25.60;29.40;;;;;;5032438;28;20806;-43
2022/09/24 12:39:27;;;;;;;4.10;3.70;;;25.50;24.40;;;;;;5032946;28;20442;-44
2022/09/24 12:42:08;;;;;;;6.57;3.77;;;25.40;26.80;;;;;;5033053;28;20393;-43
2022/09/24 12:44:48;;;;;;;4.40;4.00;;;25.40;27.80;;;;;;5032983;28;20395;-44
2022/09/24 12:47:22;;;;;;;4.63;3.80;;;25.60;28.90;;;;;;5032366;28;20400;-44
2022/09/24 12:49:53;;;;;;;7.80;4.83;;;25.80;29.70;;;;;;5032857;28;20748;-43
2022/09/24 12:52:34;;;;;;;4.90;4.23;;;25.90;29.60;;;;;;5032831;28;20404;-44
2022/09/24 12:55:02;;;;;;;6.90;3.63;;;26.00;28.00;;;;;;5032807;28;20455;-43
2022/09/24 12:57:41;;;;;;;4.03;3.73;;;26.10;27.30;;;;;;5032433;28;20536;-43
2022/09/24 13:00:35;;;;;;;4.83;4.43;;;26.10;29.30;;;;;;5031370;28;20397;-44
2022/09/24 13:03:05;;;;;;;4.33;3.93;;;26.30;29.30;;;;;;5032775;28;20401;-44
2022/09/24 13:05:42;;;;;;;5.17;4.23;;;26.30;29.10;;;;;;5031220;28;20413;-44
2022/09/24 13:08:21;;;;;;;3.83;3.53;;;26.20;26.00;;;;;;5032485;28;20424;-44
2022/09/24 13:10:54;;;;;;;3.63;3.33;;;25.90;25.50;;;;;;5032400;28;20430;-43
2022/09/24 13:13:24;;;;;;;5.33;3.70;;;25.80;27.20;;;;;;5032293;28;20499;-43
2022/09/24 13:16:22;;;;;;;4.43;4.03;;;25.70;28.30;;;;;;5031831;28;20571;-44
2022/09/24 13:18:57;;;;;;;11.70;3.30;;;25.70;28.10;;;;;;5032666;28;20443;-43
2022/09/24 13:21:26;;;;;;;4.03;3.57;;;25.40;25.70;;;;;;5032370;28;20900;-44
2022/09/24 13:23:52;;;;;;;3.60;3.30;;;25.40;27.00;;;;;;5032436;28;20503;-44